Time;durP1;ratioP1;P1;durP2;ratioP2;P2;SDS_P1;SDS_P2;PMS_P1;PMS_P2;Temp;Humidity;BMP_temperature;BMP_pressure;BME280_temperature;BME280_humidity;BME280_pressure;Samples;Min_cycle;Max_cycle;Signal;HPM_P1;HPM_P2
2022/12/21 00:02:03;;;;;;;27.17;15.90;;;;;;;7.88;100.00;99997.38;7390424;19;20415;-61
2022/12/21 00:04:33;;;;;;;29.97;16.07;;;;;;;7.77;100.00;100006.31;7393245;19;20787;-59
2022/12/21 00:07:03;;;;;;;35.20;17.50;;;;;;;7.75;100.00;100016.53;7389250;19;20781;-58
2022/12/21 00:09:33;;;;;;;27.00;16.40;;;;;;;7.76;100.00;100020.00;7391697;19;20372;-60
2022/12/21 00:12:03;;;;;;;27.77;14.70;;;;;;;7.77;100.00;100021.75;7389162;19;20419;-59
2022/12/21 00:14:33;;;;;;;26.80;15.30;;;;;;;7.70;100.00;100026.63;7392671;19;20388;-62
2022/12/21 00:17:05;;;;;;;22.57;13.67;;;;;;;7.69;100.00;100027.44;7388524;19;20422;-57
2022/12/21 00:19:35;;;;;;;27.80;15.30;;;;;;;7.70;100.00;100024.03;7391989;19;20524;-57
2022/12/21 00:22:04;;;;;;;26.90;14.90;;;;;;;7.63;100.00;100037.44;7389691;19;20422;-60
2022/12/21 00:24:34;;;;;;;28.07;14.80;;;;;;;7.63;100.00;100037.44;7392093;19;20388;-58
2022/12/21 00:27:04;;;;;;;26.77;15.37;;;;;;;7.57;100.00;100038.09;7382937;19;20431;-57
2022/12/21 00:29:33;;;;;;;27.13;14.47;;;;;;;7.59;100.00;100040.69;7391599;19;20400;-60
2022/12/21 00:32:06;;;;;;;28.83;15.10;;;;;;;7.56;100.00;100048.28;7389326;19;20492;-60
2022/12/21 00:34:35;;;;;;;29.10;15.53;;;;;;;7.53;100.00;100058.41;7392016;19;20360;-61
2022/12/21 00:37:05;;;;;;;31.37;15.60;;;;;;;7.51;100.00;100067.72;7388444;19;20486;-58
2022/12/21 00:39:35;;;;;;;27.93;15.50;;;;;;;7.53;100.00;100061.84;7391402;19;20400;-56
2022/12/21 00:42:04;;;;;;;27.50;15.87;;;;;;;7.53;100.00;100055.81;7391909;19;20497;-60
2022/12/21 00:44:34;;;;;;;29.13;15.80;;;;;;;7.53;100.00;100050.69;7391690;19;20384;-60
2022/12/21 00:47:06;;;;;;;28.77;15.87;;;;;;;7.50;100.00;100068.53;7388112;19;20451;-56
2022/12/21 00:49:36;;;;;;;31.80;16.03;;;;;;;7.52;100.00;100074.63;7391548;19;20391;-57
2022/12/21 00:52:06;;;;;;;29.67;15.27;;;;;;;7.49;100.00;100080.50;7384537;19;20756;-56
2022/12/21 00:54:35;;;;;;;31.20;15.53;;;;;;;7.53;100.00;100081.50;7388557;19;20387;-58
2022/12/21 00:57:06;;;;;;;27.93;14.50;;;;;;;7.52;100.00;100084.88;7385054;19;20663;-60
2022/12/21 00:59:35;;;;;;;28.17;15.57;;;;;;;7.51;100.00;100078.00;7388913;19;20427;-59
2022/12/21 01:02:07;;;;;;;32.00;16.53;;;;;;;7.49;100.00;100089.91;7387590;19;20474;-59
2022/12/21 01:04:37;;;;;;;31.67;16.77;;;;;;;7.50;100.00;100091.66;7389124;19;20411;-58
2022/12/21 01:07:06;;;;;;;30.73;15.57;;;;;;;7.52;100.00;100090.03;7387167;19;20431;-60
2022/12/21 01:09:36;;;;;;;28.80;16.57;;;;;;;7.50;100.00;100091.66;7388063;19;20432;-60
2022/12/21 01:12:06;;;;;;;29.33;14.60;;;;;;;7.50;100.00;100100.25;7387194;19;20427;-60
2022/12/21 01:14:35;;;;;;;28.77;15.13;;;;;;;7.51;100.00;100108.81;7388526;19;20399;-56
2022/12/21 01:17:07;;;;;;;29.10;16.00;;;;;;;7.52;100.00;100105.41;7384540;19;20475;-58
2022/12/21 01:19:37;;;;;;;33.87;16.70;;;;;;;7.52;100.00;100113.13;7388856;19;20383;-58
2022/12/21 01:22:06;;;;;;;33.13;15.80;;;;;;;7.45;100.00;100119.69;7385652;19;20956;-61
2022/12/21 01:24:35;;;;;;;28.97;13.93;;;;;;;7.46;100.00;100121.44;7389385;19;20431;-58
2022/12/21 01:27:05;;;;;;;28.07;12.70;;;;;;;7.48;100.00;100118.94;7375538;19;20451;-56
2022/12/21 01:29:34;;;;;;;28.33;14.10;;;;;;;7.43;100.00;100117.06;7389540;19;20398;-58
2022/12/21 01:32:07;;;;;;;27.80;12.93;;;;;;;7.44;100.00;100120.50;7386635;19;20521;-60
2022/12/21 01:34:37;;;;;;;34.03;16.40;;;;;;;7.67;100.00;100113.81;7388799;19;20391;-59
2022/12/21 01:37:07;;;;;;;32.07;14.60;;;;;;;7.77;100.00;100106.47;7388424;19;20448;-61
2022/12/21 01:39:36;;;;;;;28.00;13.70;;;;;;;7.75;100.00;100102.97;7389100;19;20386;-58
2022/12/21 01:42:06;;;;;;;32.03;15.70;;;;;;;7.68;100.00;100107.84;7386476;19;20418;-60
2022/12/21 01:44:58;;;;;;;33.33;16.27;;;;;;;7.61;100.00;100117.78;7388955;19;20399;-58
2022/12/21 01:47:35;;;;;;;30.23;14.40;;;;;;;7.56;100.00;100125.28;7387825;19;20419;-59
2022/12/21 01:50:21;;;;;;;30.73;14.60;;;;;;;7.49;100.00;100133.53;7385530;19;20404;-59
2022/12/21 01:52:51;;;;;;;31.30;14.97;;;;;;;7.50;100.00;100143.00;7388427;19;20395;-59
2022/12/21 01:55:21;;;;;;;33.70;14.67;;;;;;;7.49;100.00;100147.22;7386131;19;20415;-58
2022/12/21 01:57:51;;;;;;;29.83;14.00;;;;;;;7.50;100.00;100148.13;7388633;19;20363;-59
2022/12/21 02:00:20;;;;;;;31.70;14.67;;;;;;;7.43;100.00;100176.09;7385372;19;20432;-58
2022/12/21 02:02:56;;;;;;;32.60;14.40;;;;;;;7.42;100.00;100187.16;7388450;19;20917;-60
2022/12/21 02:05:32;;;;;;;32.47;14.83;;;;;;;7.39;100.00;100206.69;7390947;19;20419;-61
2022/12/21 02:08:04;;;;;;;32.83;15.27;;;;;;;7.35;100.00;100233.91;7395510;19;20387;-61
2022/12/21 02:10:34;;;;;;;31.33;14.87;;;;;;;7.39;100.00;100253.75;7392047;19;20755;-61
2022/12/21 02:13:06;;;;;;;46.33;15.00;;;;;;;7.38;100.00;100271.66;7396286;19;20395;-61
2022/12/21 02:15:51;;;;;;;34.23;15.43;;;;;;;7.34;100.00;100298.84;7393140;19;20414;-59
2022/12/21 02:18:35;;;;;;;39.40;15.47;;;;;;;7.32;100.00;100322.69;7395353;19;20399;-61
2022/12/21 02:21:26;;;;;;;41.17;16.57;;;;;;;7.30;100.00;100343.16;7393327;19;20440;-58
2022/12/21 02:24:17;;;;;;;42.17;16.33;;;;;;;7.26;100.00;100354.06;7395697;19;20956;-58
2022/12/21 02:26:56;;;;;;;32.93;13.70;;;;;;;7.26;100.00;100365.22;7385542;19;20805;-59
2022/12/21 02:29:47;;;;;;;48.77;16.37;;;;;;;7.29;100.00;100365.34;7397527;19;20515;-60
2022/12/21 02:32:25;;;;;;;41.93;15.80;;;;;;;7.27;100.00;100366.97;7395092;19;20415;-61
2022/12/21 02:35:02;;;;;;;42.50;15.93;;;;;;;7.27;100.00;100368.66;7394461;19;20765;-60
2022/12/21 02:37:35;;;;;;;35.47;15.00;;;;;;;7.23;100.00;100375.31;7395863;19;20452;-60
2022/12/21 02:40:15;;;;;;;42.83;16.43;;;;;;;7.24;100.00;100377.06;7393308;19;20387;-59
2022/12/21 02:45:41;;;;;;;35.83;14.50;;;;;;;7.24;100.00;100371.94;7391622;19;20422;-55
2022/12/21 02:48:16;;;;;;;66.67;13.67;;;;;;;7.25;100.00;100377.97;7394683;19;20399;-58
2022/12/21 02:50:47;;;;;;;41.53;14.47;;;;;;;7.20;100.00;100385.44;7392829;19;20435;-58
2022/12/21 02:53:20;;;;;;;44.23;16.53;;;;;;;7.20;100.00;100390.59;7395255;19;20761;-60
2022/12/21 02:55:50;;;;;;;40.17;14.00;;;;;;;7.16;100.00;100389.56;7391969;19;20799;-58
2022/12/21 02:58:21;;;;;;;52.97;14.23;;;;;;;7.11;100.00;100393.56;7396305;19;20412;-58
2022/12/21 03:01:02;;;;;;;58.87;16.80;;;;;;;7.15;100.00;100392.94;7392045;19;20403;-58
2022/12/21 03:03:52;;;;;;;44.03;14.50;;;;;;;7.11;100.00;100387.53;7395023;19;20384;-59
2022/12/21 03:06:44;;;;;;;48.70;15.50;;;;;;;7.10;100.00;100386.69;7391435;19;20956;-59
2022/12/21 03:09:20;;;;;;;37.60;13.33;;;;;;;7.11;100.00;100398.69;7392792;19;20388;-60
2022/12/21 03:11:57;;;;;;;41.70;14.90;;;;;;;7.10;100.00;100389.25;7391907;19;20978;-59
2022/12/21 03:14:37;;;;;;;40.30;13.97;;;;;;;7.08;100.00;100395.97;7394597;19;20394;-60
2022/12/21 03:17:12;;;;;;;49.87;14.47;;;;;;;7.08;100.00;100393.41;7388794;19;20429;-60
2022/12/21 03:19:47;;;;;;;45.77;16.00;;;;;;;7.10;100.00;100381.56;7393779;19;21166;-61
2022/12/21 03:22:23;;;;;;;74.23;16.00;;;;;;;7.14;100.00;100385.16;7393889;19;20426;-61
2022/12/21 03:24:58;;;;;;;75.30;14.27;;;;;;;7.18;100.00;100381.03;7389672;19;20917;-62
2022/12/21 03:27:31;;;;;;;50.83;15.20;;;;;;;7.08;100.00;100385.69;7392123;19;20847;-60
2022/12/21 03:30:03;;;;;;;114.43;16.73;;;;;;;7.07;100.00;100388.22;7390769;19;20395;-60
2022/12/21 03:32:37;;;;;;;78.17;12.67;;;;;;;7.03;100.00;100392.31;7393558;19;20388;-59
2022/12/21 03:35:12;;;;;;;62.50;15.20;;;;;;;7.01;100.00;100384.53;7391986;19;20393;-59
2022/12/21 03:37:43;;;;;;;152.00;16.70;;;;;;;6.97;100.00;100382.59;7391770;19;20430;-57
2022/12/21 03:40:15;;;;;;;50.30;11.90;;;;;;;6.97;100.00;100386.88;7394104;19;20418;-60
2022/12/21 03:42:48;;;;;;;84.43;9.53;;;;;;;6.94;100.00;100381.56;7393427;19;20407;-62
2022/12/21 03:45:21;;;;;;;87.57;13.17;;;;;;;6.89;100.00;100377.09;7391490;19;20952;-60
2022/12/21 03:47:53;;;;;;;124.60;12.20;;;;;;;6.87;100.00;100373.56;7391343;19;20973;-60
2022/12/21 03:50:27;;;;;;;117.20;13.90;;;;;;;6.93;100.00;100364.44;7388703;19;20443;-60
2022/12/21 03:53:04;;;;;;;89.40;11.17;;;;;;;6.87;100.00;100349.63;7393169;19;20420;-61
2022/12/21 03:55:37;;;;;;;123.80;14.87;;;;;;;6.86;100.00;100332.44;7390499;19;20415;-57
2022/12/21 03:58:07;;;;;;;100.87;13.30;;;;;;;6.94;100.00;100325.16;7393037;19;20393;-61
2022/12/21 04:00:42;;;;;;;52.50;11.33;;;;;;;6.85;100.00;100331.59;7388281;19;20430;-61
2022/12/21 04:03:15;;;;;;;94.77;12.43;;;;;;;6.83;100.00;100322.91;7392888;19;20746;-59
2022/12/21 04:05:55;;;;;;;146.73;16.63;;;;;;;6.80;100.00;100307.41;7389224;19;20775;-59
2022/12/21 04:08:25;;;;;;;150.83;11.90;;;;;;;6.83;100.00;100298.97;7391557;19;20755;-60
2022/12/21 04:10:55;;;;;;;114.17;14.07;;;;;;;6.76;100.00;100290.09;7389196;19;20418;-59
2022/12/21 04:13:22;;;;;;;80.73;11.67;;;;;;;6.81;100.00;100287.78;7392533;19;20414;-57
2022/12/21 04:21:18;;;;;;;159.63;12.40;;;;;;;6.72;100.00;100273.66;7388587;19;20422;-59
2022/12/21 04:29:12;;;;;;;60.13;11.17;;;;;;;6.70;100.00;100264.13;7389749;19;20394;-59
2022/12/21 04:31:41;;;;;;;81.47;13.43;;;;;;;6.70;100.00;100246.19;7386260;19;20735;-61
2022/12/21 04:34:11;;;;;;;63.40;11.87;;;;;;;6.66;100.00;100234.91;7388288;19;20771;-62
2022/12/21 04:39:25;;;;;;;72.50;13.50;;;;;;;6.71;100.00;100212.94;7386951;19;20768;-61
2022/12/21 04:41:54;;;;;;;90.20;15.27;;;;;;;6.64;100.00;100198.06;7384905;19;20426;-57
2022/12/21 04:44:26;;;;;;;80.20;15.10;;;;;;;6.62;100.00;100189.44;7387257;19;20402;-61
2022/12/21 04:46:55;;;;;;;206.00;20.70;;;;;;;6.67;100.00;100181.97;7383681;19;20426;-63
2022/12/21 04:49:25;;;;;;;108.40;16.93;;;;;;;6.61;100.00;100180.84;7386395;19;20402;-59
2022/12/21 04:51:57;;;;;;;91.70;16.00;;;;;;;6.59;100.00;100169.66;7384479;19;20779;-60
2022/12/21 04:54:26;;;;;;;130.60;15.93;;;;;;;6.53;100.00;100165.91;7389600;19;20398;-59
2022/12/21 04:56:55;;;;;;;57.13;13.60;;;;;;;6.49;100.00;100164.88;7382976;19;20433;-62
2022/12/21 04:59:25;;;;;;;53.10;16.97;;;;;;;6.47;100.00;100169.91;7392159;19;20401;-60
2022/12/21 05:01:54;;;;;;;53.53;14.57;;;;;;;6.45;100.00;100180.91;7385078;19;20411;-63
2022/12/21 05:04:24;;;;;;;47.60;13.93;;;;;;;6.43;100.00;100180.84;7387153;19;20381;-60
2022/12/21 05:06:57;;;;;;;47.63;15.07;;;;;;;6.45;100.00;100173.22;7383275;19;21192;-60
2022/12/21 05:09:27;;;;;;;43.53;13.93;;;;;;;6.37;100.00;100177.09;7386242;19;20395;-61
2022/12/21 05:11:55;;;;;;;47.87;14.43;;;;;;;6.41;100.00;100173.88;7386113;19;20771;-60
2022/12/21 05:14:25;;;;;;;49.67;13.33;;;;;;;6.33;100.00;100174.38;7387587;19;20393;-61
2022/12/21 05:16:54;;;;;;;50.60;14.40;;;;;;;6.34;100.00;100171.00;7383079;19;20424;-57
2022/12/21 05:19:25;;;;;;;46.07;15.83;;;;;;;6.35;100.00;100180.47;7386575;19;20395;-58
2022/12/21 05:21:57;;;;;;;54.20;15.33;;;;;;;6.27;100.00;100183.44;7384117;19;20759;-62
2022/12/21 05:24:27;;;;;;;40.70;15.00;;;;;;;6.26;100.00;100179.97;7386198;19;20449;-60
2022/12/21 05:26:57;;;;;;;41.30;12.37;;;;;;;6.26;100.00;100194.50;7383416;19;20446;-61
2022/12/21 05:29:27;;;;;;;43.20;13.50;;;;;;;6.18;100.00;100201.78;7384818;19;20421;-60
2022/12/21 05:31:56;;;;;;;47.03;13.40;;;;;;;6.14;100.00;100210.09;7382615;19;20426;-59
2022/12/21 05:34:25;;;;;;;41.13;13.27;;;;;;;6.13;100.00;100221.16;7386287;19;20409;-60
2022/12/21 05:36:57;;;;;;;33.23;11.57;;;;;;;6.14;100.00;100220.34;7382775;19;20474;-60
2022/12/21 05:39:27;;;;;;;40.13;14.07;;;;;;;6.16;100.00;100236.69;7394041;19;20730;-59
2022/12/21 05:41:56;;;;;;;39.10;12.80;;;;;;;6.11;100.00;100243.25;7385632;19;20425;-61
2022/12/21 05:44:26;;;;;;;44.07;13.30;;;;;;;6.10;100.00;100249.19;7396902;19;21041;-60
2022/12/21 05:46:55;;;;;;;41.53;12.97;;;;;;;6.12;100.00;100261.28;7392344;19;20476;-63
2022/12/21 05:49:25;;;;;;;50.73;14.17;;;;;;;6.08;100.00;100273.06;7391786;19;20399;-59
2022/12/21 05:51:54;;;;;;;54.10;14.90;;;;;;;6.08;100.00;100283.28;7390002;19;20433;-59
2022/12/21 05:54:26;;;;;;;49.37;14.93;;;;;;;6.16;100.00;100291.34;7392353;19;20936;-61
2022/12/21 05:56:55;;;;;;;48.20;14.57;;;;;;;6.16;100.00;100304.16;7387827;19;21092;-59
2022/12/21 05:59:25;;;;;;;43.50;16.07;;;;;;;6.38;100.00;100313.00;7392523;19;20405;-61
2022/12/21 06:01:54;;;;;;;49.57;14.77;;;;;;;6.39;100.00;100339.47;7390849;19;21237;-60
2022/12/21 06:04:24;;;;;;;44.67;14.47;;;;;;;6.28;100.00;100362.88;7396827;19;20475;-59
2022/12/21 06:06:54;;;;;;;46.73;14.50;;;;;;;6.66;100.00;100395.56;7384061;19;20453;-61
2022/12/21 06:09:26;;;;;;;41.87;12.83;;;;;;;6.36;100.00;100419.63;7396070;19;20422;-62
2022/12/21 06:11:55;;;;;;;39.67;14.27;;;;;;;6.22;100.00;100445.41;7389332;19;20453;-61
2022/12/21 06:14:25;;;;;;;40.90;14.40;;;;;;;6.27;100.00;100453.38;7392405;19;20678;-60
2022/12/21 06:16:54;;;;;;;56.97;15.57;;;;;;;6.20;100.00;100472.63;7387186;19;20440;-58
2022/12/21 06:19:23;;;;;;;47.00;14.17;;;;;;;6.15;100.00;100486.00;7391139;19;20436;-57
2022/12/21 06:21:53;;;;;;;48.33;14.40;;;;;;;6.14;100.00;100491.88;7389426;19;20440;-57
2022/12/21 06:24:22;;;;;;;45.83;14.40;;;;;;;6.16;100.00;100496.31;7391654;19;20949;-60
2022/12/21 06:26:54;;;;;;;40.70;14.20;;;;;;;6.07;100.00;100501.78;7385477;19;20435;-61
2022/12/21 06:29:24;;;;;;;58.93;14.90;;;;;;;6.08;100.00;100505.25;7390872;19;20396;-60
2022/12/21 06:31:53;;;;;;;53.13;12.90;;;;;;;6.02;100.00;100513.47;7387892;19;20414;-58
2022/12/21 06:34:23;;;;;;;45.73;13.43;;;;;;;6.01;100.00;100511.66;7391126;19;20393;-60
2022/12/21 06:36:52;;;;;;;55.37;15.40;;;;;;;6.02;100.00;100512.56;7387061;19;21100;-60
2022/12/21 06:39:22;;;;;;;68.13;15.87;;;;;;;5.97;100.00;100509.75;7390423;19;20402;-59
2022/12/21 06:41:51;;;;;;;41.43;13.23;;;;;;;5.96;100.00;100507.97;7387691;19;20421;-57
2022/12/21 06:44:23;;;;;;;59.73;13.80;;;;;;;6.02;100.00;100513.47;7390361;19;20410;-60
2022/12/21 06:46:52;;;;;;;61.80;13.17;;;;;;;6.02;100.00;100517.69;7386706;19;20428;-59
2022/12/21 06:49:22;;;;;;;67.13;13.73;;;;;;;5.98;100.00;100511.50;7390689;19;20473;-60
2022/12/21 06:51:52;;;;;;;50.13;12.73;;;;;;;5.99;100.00;100510.69;7385246;19;20425;-56
2022/12/21 06:54:22;;;;;;;80.30;13.93;;;;;;;5.93;100.00;100515.47;7391558;19;20859;-59
2022/12/21 06:56:52;;;;;;;121.40;16.10;;;;;;;5.90;100.00;100521.31;7387616;19;20419;-60
2022/12/21 06:59:24;;;;;;;91.83;14.10;;;;;;;5.85;100.00;100519.28;7390634;19;20392;-61
2022/12/21 07:01:53;;;;;;;56.87;12.43;;;;;;;5.76;100.00;100520.53;7389017;19;20414;-62
2022/12/21 07:04:23;;;;;;;65.57;11.87;;;;;;;5.79;100.00;100522.38;7390722;19;20393;-59
2022/12/21 07:06:52;;;;;;;131.63;15.30;;;;;;;5.77;100.00;100516.28;7387338;19;20994;-60
2022/12/21 07:09:22;;;;;;;62.77;13.70;;;;;;;5.75;100.00;100516.19;7390038;19;20369;-60
2022/12/21 07:11:52;;;;;;;48.57;13.80;;;;;;;5.80;100.00;100519.03;7386362;19;20451;-60
2022/12/21 07:14:24;;;;;;;50.33;12.37;;;;;;;5.74;100.00;100506.75;7390474;19;20873;-61
2022/12/21 07:16:53;;;;;;;42.30;12.40;;;;;;;5.69;100.00;100508.16;7386604;19;20439;-61
2022/12/21 07:19:23;;;;;;;87.97;14.50;;;;;;;5.64;100.00;100507.03;7390292;19;20407;-55
2022/12/21 07:21:52;;;;;;;117.53;15.50;;;;;;;5.67;100.00;100513.22;7387654;19;20441;-59
2022/12/21 07:24:22;;;;;;;122.87;14.83;;;;;;;5.65;100.00;100507.09;7390294;19;20395;-62
2022/12/21 07:26:51;;;;;;;81.57;13.70;;;;;;;5.66;100.00;100508.00;7384552;19;20454;-58
2022/12/21 07:29:20;;;;;;;98.27;15.93;;;;;;;5.65;100.00;100507.09;7388752;19;20388;-60
2022/12/21 07:31:53;;;;;;;65.87;12.83;;;;;;;5.59;100.00;100506.75;7384730;19;20435;-56
2022/12/21 07:34:23;;;;;;;52.73;11.90;;;;;;;5.61;100.00;100504.28;7389285;19;20449;-59
2022/12/21 07:36:52;;;;;;;84.53;13.90;;;;;;;5.57;100.00;100507.44;7385046;19;20443;-60
2022/12/21 07:39:21;;;;;;;57.73;12.47;;;;;;;5.50;100.00;100516.47;7393192;19;20405;-57
2022/12/21 07:41:51;;;;;;;50.07;10.57;;;;;;;5.49;100.00;100507.88;7385642;19;20436;-59
2022/12/21 07:44:20;;;;;;;46.13;18.00;;;;;;;5.49;100.00;100502.75;7389464;19;20400;-60
2022/12/21 07:46:52;;;;;;;68.30;21.10;;;;;;;5.59;100.00;100496.50;7384471;19;20441;-56
2022/12/21 07:49:22;;;;;;;121.83;15.90;;;;;;;5.58;100.00;100483.63;7388254;19;20409;-59
2022/12/21 07:51:51;;;;;;;163.23;18.80;;;;;;;5.69;100.00;100485.13;7386708;19;20489;-58
2022/12/21 07:54:22;;;;;;;87.83;14.67;;;;;;;5.59;100.00;100493.94;7392054;19;20419;-61
2022/12/21 07:56:51;;;;;;;153.90;16.77;;;;;;;5.51;100.00;100496.09;7387816;19;20469;-59
2022/12/21 07:59:21;;;;;;;82.47;14.00;;;;;;;5.44;100.00;100503.31;7396056;19;20393;-61
2022/12/21 08:01:55;;;;;;;71.20;13.43;;;;;;;5.44;100.00;100509.28;7388471;19;20822;-57
2022/12/21 08:04:24;;;;;;;63.37;12.27;;;;;;;5.39;100.00;100524.38;7392913;19;20425;-59
2022/12/21 08:06:54;;;;;;;84.83;13.93;;;;;;;5.44;100.00;100511.84;7388308;19;20415;-60
2022/12/21 08:09:23;;;;;;;62.83;12.40;;;;;;;5.39;100.00;100524.38;7391098;19;20379;-57
2022/12/21 08:11:53;;;;;;;57.47;11.30;;;;;;;5.33;100.00;100523.16;7387582;19;20791;-60
2022/12/21 08:14:23;;;;;;;58.77;13.27;;;;;;;5.36;100.00;100513.09;7395583;19;20393;-60
2022/12/21 08:16:55;;;;;;;158.50;17.77;;;;;;;5.40;100.00;100505.66;7390869;19;20790;-61
2022/12/21 08:19:25;;;;;;;109.10;19.53;;;;;;;5.45;100.00;100508.53;7391677;19;21048;-60
2022/12/21 08:21:54;;;;;;;61.33;17.50;;;;;;;5.51;100.00;100513.09;7389758;19;20494;-61
2022/12/21 08:24:24;;;;;;;136.40;17.60;;;;;;;5.52;100.00;100510.63;7389192;19;20922;-60
2022/12/21 08:26:55;;;;;;;64.20;14.00;;;;;;;5.82;100.00;100496.94;7388871;19;20962;-60
2022/12/21 08:29:26;;;;;;;88.43;15.83;;;;;;;5.83;100.00;100505.53;7387877;19;20375;-60
2022/12/21 08:31:58;;;;;;;57.23;12.83;;;;;;;5.65;100.00;100501.97;7390212;19;20963;-61
2022/12/21 08:34:28;;;;;;;54.83;12.60;;;;;;;5.58;100.00;100509.22;7385750;19;20946;-60
2022/12/21 08:36:58;;;;;;;63.70;14.17;;;;;;;5.52;100.00;100531.13;7390078;19;20437;-58
2022/12/21 08:39:27;;;;;;;81.30;14.27;;;;;;;5.47;100.00;100527.41;7387602;19;20491;-57
2022/12/21 08:41:57;;;;;;;46.97;12.90;;;;;;;5.48;100.00;100518.91;7389637;19;20409;-62
2022/12/21 08:44:26;;;;;;;87.57;13.13;;;;;;;5.50;100.00;100525.00;7390763;19;20399;-59
2022/12/21 08:46:58;;;;;;;58.47;14.47;;;;;;;5.51;100.00;100518.22;7389970;19;20428;-62
2022/12/21 08:49:28;;;;;;;58.27;13.80;;;;;;;5.54;100.00;100503.06;7388714;19;20405;-61
2022/12/21 08:51:57;;;;;;;83.57;14.80;;;;;;;5.52;100.00;100495.28;7390423;19;21075;-61
2022/12/21 08:54:27;;;;;;;74.67;14.60;;;;;;;5.54;100.00;100483.44;7388016;19;20441;-59
2022/12/21 08:56:57;;;;;;;71.53;14.60;;;;;;;5.54;100.00;100480.03;7389611;19;20428;-61
2022/12/21 08:59:26;;;;;;;71.50;13.80;;;;;;;5.56;100.00;100477.53;7387044;19;20969;-60
2022/12/21 09:01:58;;;;;;;65.23;14.60;;;;;;;5.61;100.00;100469.34;7390648;19;20758;-60
2022/12/21 09:04:28;;;;;;;48.57;12.97;;;;;;;5.63;100.00;100477.97;7387456;19;20788;-57
2022/12/21 09:06:58;;;;;;;56.83;14.63;;;;;;;5.66;100.00;100474.72;7389508;19;20419;-57
2022/12/21 09:09:28;;;;;;;45.90;14.10;;;;;;;5.67;100.00;100485.06;7386108;19;20412;-60
2022/12/21 09:11:57;;;;;;;92.50;14.50;;;;;;;5.67;100.00;100484.16;7389727;19;20393;-61
2022/12/21 09:14:27;;;;;;;45.73;13.77;;;;;;;5.68;100.00;100484.25;7391129;19;20413;-61
2022/12/21 09:16:59;;;;;;;53.07;13.80;;;;;;;5.67;100.00;100490.16;7395626;19;20502;-62
2022/12/21 09:19:29;;;;;;;59.53;15.20;;;;;;;5.74;100.00;100491.38;7393935;19;20785;-60
2022/12/21 09:22:00;;;;;;;45.67;14.50;;;;;;;5.68;100.00;100496.16;7395240;19;20408;-57
2022/12/21 09:24:30;;;;;;;52.53;14.17;;;;;;;5.68;100.00;100488.47;7398281;19;20808;-60
2022/12/21 09:27:00;;;;;;;59.57;17.43;;;;;;;5.71;100.00;100488.66;7394989;19;20419;-62
2022/12/21 09:29:29;;;;;;;66.80;16.07;;;;;;;5.76;100.00;100500.06;7396148;19;20411;-63
2022/12/21 09:32:01;;;;;;;40.90;14.27;;;;;;;5.77;100.00;100506.94;7396044;19;20403;-63
2022/12/21 09:34:32;;;;;;;46.33;15.03;;;;;;;5.77;100.00;100498.34;7394567;19;20996;-61
2022/12/21 09:37:01;;;;;;;58.83;16.40;;;;;;;5.78;100.00;100500.13;7396259;19;20444;-62
2022/12/21 09:39:51;;;;;;;44.47;15.30;;;;;;;5.79;100.00;100515.56;7396463;19;21024;-61
2022/12/21 09:42:31;;;;;;;49.87;16.03;;;;;;;5.72;100.00;100518.59;7395123;19;20421;-64
2022/12/21 09:45:09;;;;;;;42.80;13.70;;;;;;;5.73;100.00;100534.81;7397595;19;20403;-62
2022/12/21 09:47:48;;;;;;;49.33;15.47;;;;;;;5.78;100.00;100528.28;7396459;19;20419;-64
2022/12/21 09:50:22;;;;;;;47.57;16.23;;;;;;;5.86;100.00;100515.94;7397194;19;20392;-62
2022/12/21 09:52:58;;;;;;;46.70;15.00;;;;;;;5.74;100.00;100522.09;7393464;19;20422;-63
2022/12/21 09:55:30;;;;;;;39.47;13.87;;;;;;;5.79;100.00;100523.25;7397348;19;20384;-63
2022/12/21 09:58:01;;;;;;;38.63;14.50;;;;;;;5.74;100.00;100527.22;7393003;19;20782;-63
2022/12/21 10:00:32;;;;;;;50.90;17.80;;;;;;;5.91;100.00;100529.88;7398997;19;20392;-59
2022/12/21 10:03:30;;;;;;;48.67;18.80;;;;;;;6.02;100.00;100527.94;7395015;19;20416;-60
2022/12/21 10:06:10;;;;;;;60.50;20.10;;;;;;;5.91;100.00;100529.88;7400431;19;20947;-61
2022/12/21 10:08:51;;;;;;;61.03;22.17;;;;;;;5.98;100.00;100531.09;7392260;19;20437;-63
2022/12/21 10:11:32;;;;;;;44.50;13.90;;;;;;;5.75;100.00;100534.09;7394923;19;20390;-62
2022/12/21 10:14:05;;;;;;;30.30;11.80;;;;;;;5.76;100.00;100546.13;7396290;19;20450;-58
2022/12/21 10:16:40;;;;;;;36.77;15.07;;;;;;;5.79;100.00;100530.94;7395017;19;20428;-59
2022/12/21 10:19:32;;;;;;;51.03;18.23;;;;;;;5.94;100.00;100525.81;7392723;19;20450;-58
2022/12/21 10:22:07;;;;;;;39.57;15.70;;;;;;;5.99;100.00;100531.19;7396284;19;20397;-61
2022/12/21 10:24:42;;;;;;;43.23;14.97;;;;;;;6.02;100.00;100523.72;7388722;19;20428;-61
2022/12/21 10:27:17;;;;;;;39.30;12.97;;;;;;;5.96;100.00;100518.22;7394239;19;20421;-61
2022/12/21 10:29:49;;;;;;;36.30;13.70;;;;;;;6.10;100.00;100520.72;7394178;19;20415;-61
2022/12/21 10:32:18;;;;;;;37.70;13.67;;;;;;;5.94;100.00;100520.69;7391659;19;20407;-57
2022/12/21 10:34:53;;;;;;;38.10;13.57;;;;;;;6.00;100.00;100520.16;7394964;19;20394;-58
2022/12/21 10:37:23;;;;;;;35.20;13.63;;;;;;;5.99;100.00;100526.06;7389941;19;20425;-57
2022/12/21 10:39:57;;;;;;;36.30;14.03;;;;;;;6.01;100.00;100542.41;7394023;19;20403;-60
2022/12/21 10:42:29;;;;;;;41.00;15.40;;;;;;;6.00;100.00;100543.19;7392736;19;20400;-62
2022/12/21 10:45:01;;;;;;;51.63;16.30;;;;;;;6.01;100.00;100542.41;7393811;19;20385;-61
2022/12/21 10:47:30;;;;;;;37.77;14.43;;;;;;;6.02;100.00;100554.47;7388126;19;20424;-62
2022/12/21 10:50:06;;;;;;;44.67;15.90;;;;;;;6.07;100.00;100553.03;7388130;19;20976;-61
2022/12/21 10:52:39;;;;;;;35.73;15.10;;;;;;;6.04;100.00;100551.97;7386022;19;20397;-61
2022/12/21 10:55:32;;;;;;;39.63;14.27;;;;;;;5.95;100.00;100552.31;7390957;19;20942;-61
2022/12/21 10:58:16;;;;;;;53.23;19.27;;;;;;;6.10;100.00;100554.88;7387090;19;20427;-58
2022/12/21 11:00:56;;;;;;;46.70;16.10;;;;;;;6.08;100.00;100551.34;7390946;19;20389;-58
2022/12/21 11:03:28;;;;;;;50.93;15.57;;;;;;;6.05;100.00;100544.38;7389172;19;20413;-61
2022/12/21 11:06:13;;;;;;;56.93;17.90;;;;;;;6.12;100.00;100534.47;7391393;19;20392;-61
2022/12/21 11:08:46;;;;;;;43.90;16.77;;;;;;;6.15;100.00;100525.28;7387829;19;20404;-61
2022/12/21 11:11:30;;;;;;;54.00;15.80;;;;;;;6.18;100.00;100539.94;7391258;19;20750;-61
2022/12/21 11:14:00;;;;;;;45.00;16.77;;;;;;;6.20;100.00;100534.13;7390427;19;20416;-59
2022/12/21 11:16:37;;;;;;;45.33;16.60;;;;;;;6.26;100.00;100533.56;7390450;19;20496;-61
2022/12/21 11:19:07;;;;;;;46.97;16.40;;;;;;;6.20;100.00;100554.63;7388024;19;20789;-61
2022/12/21 11:21:41;;;;;;;43.67;17.57;;;;;;;6.21;100.00;100548.69;7391881;19;20404;-56
2022/12/21 11:24:14;;;;;;;46.47;15.80;;;;;;;6.12;100.00;100557.53;7387711;19;20413;-62
2022/12/21 11:26:45;;;;;;;54.57;18.90;;;;;;;6.15;100.00;100544.91;7389911;19;20459;-58
2022/12/21 11:29:21;;;;;;;43.60;15.97;;;;;;;6.20;100.00;100549.50;7388827;19;20418;-61
2022/12/21 11:31:51;;;;;;;50.80;16.43;;;;;;;6.27;100.00;100544.72;7391751;19;20391;-62
2022/12/21 11:34:32;;;;;;;43.87;14.10;;;;;;;6.24;100.00;100540.28;7388211;19;20443;-61
2022/12/21 11:37:07;;;;;;;41.90;14.93;;;;;;;6.25;100.00;100530.94;7387328;19;20524;-55
2022/12/21 11:39:42;;;;;;;48.60;15.30;;;;;;;6.24;100.00;100540.28;7386638;19;20547;-61
2022/12/21 11:42:18;;;;;;;47.83;17.13;;;;;;;6.32;100.00;100533.03;7395940;19;20496;-59
2022/12/21 11:44:48;;;;;;;40.80;14.77;;;;;;;6.30;100.00;100540.63;7388536;19;20420;-61
2022/12/21 11:47:28;;;;;;;45.27;15.50;;;;;;;6.39;100.00;100542.81;7391976;19;20436;-60
2022/12/21 11:50:19;;;;;;;47.90;16.90;;;;;;;6.43;100.00;100547.34;7392805;19;20409;-60